createdAt,value
2023-05-21T00:02:14.921Z,15.40
2023-05-21T00:04:44.764Z,15.50
2023-05-21T00:07:13.903Z,14.90
2023-05-21T00:09:42.448Z,15.70
2023-05-21T00:12:11.565Z,16.20
2023-05-21T00:14:39.912Z,15.30
2023-05-21T00:17:08.800Z,15.80
2023-05-21T00:19:37.478Z,14.10
2023-05-21T00:22:06.479Z,15.70
2023-05-21T00:24:34.906Z,16.20
2023-05-21T00:27:03.889Z,15.80
2023-05-21T00:29:32.474Z,15.30
2023-05-21T00:32:00.842Z,15.80
2023-05-21T00:34:30.069Z,14.70
2023-05-21T00:36:58.720Z,14.60
2023-05-21T00:39:28.421Z,16.20
2023-05-21T00:41:57.347Z,15.70
2023-05-21T00:44:25.800Z,16.20
2023-05-21T00:47:23.979Z,16.40
2023-05-21T00:49:53.570Z,16.00
2023-05-21T00:52:23.538Z,16.50
2023-05-21T00:54:52.756Z,16.60
2023-05-21T00:57:23.154Z,17.40
2023-05-21T00:59:54.047Z,16.90
2023-05-21T01:02:24.638Z,15.90
2023-05-21T01:04:56.606Z,15.40
2023-05-21T01:07:24.958Z,16.40
2023-05-21T01:09:54.677Z,16.20
2023-05-21T01:12:24.107Z,14.20
2023-05-21T01:14:53.703Z,14.90
2023-05-21T01:17:24.666Z,14.80
2023-05-21T01:19:55.018Z,14.80
2023-05-21T01:22:25.414Z,16.20
2023-05-21T01:24:55.956Z,17.50
2023-05-21T01:27:24.449Z,16.70
2023-05-21T01:29:52.989Z,16.30
2023-05-21T01:32:56.014Z,16.70
2023-05-21T01:35:42.716Z,17.00
2023-05-21T01:38:28.244Z,16.40
2023-05-21T01:41:04.112Z,17.10
2023-05-21T01:43:36.481Z,16.90
2023-05-21T01:46:08.384Z,15.60
2023-05-21T01:48:38.354Z,16.80
2023-05-21T01:51:07.764Z,16.70
2023-05-21T01:53:39.295Z,16.80
2023-05-21T01:56:08.102Z,16.10
2023-05-21T01:58:36.639Z,17.40
2023-05-21T02:01:05.608Z,16.50
2023-05-21T02:03:34.328Z,16.90
2023-05-21T02:06:03.342Z,26.40
2023-05-21T02:08:31.720Z,25.20
2023-05-21T02:11:00.162Z,19.70
2023-05-21T02:13:29.532Z,26.80
2023-05-21T02:15:57.980Z,22.70
2023-05-21T02:18:26.724Z,23.70
2023-05-21T02:20:55.276Z,17.90
2023-05-21T02:23:23.658Z,20.80
2023-05-21T02:25:52.095Z,19.70
2023-05-21T02:28:21.698Z,16.10
2023-05-21T02:30:50.270Z,16.70
2023-05-21T02:33:20.629Z,18.30
2023-05-21T02:35:49.172Z,18.50
2023-05-21T02:38:19.866Z,16.50
2023-05-21T02:40:48.234Z,17.00
2023-05-21T02:43:17.037Z,18.30
2023-05-21T02:46:06.384Z,17.50
2023-05-21T02:48:35.121Z,15.70
2023-05-21T02:51:03.729Z,14.60
2023-05-21T02:53:32.238Z,16.10
2023-05-21T02:56:00.747Z,16.40
2023-05-21T02:58:29.923Z,15.10
2023-05-21T03:00:58.396Z,15.20
2023-05-21T03:03:27.365Z,16.00
2023-05-21T03:05:55.953Z,14.60
2023-05-21T03:08:25.649Z,15.10
2023-05-21T03:10:54.128Z,15.00
2023-05-21T03:13:22.605Z,14.10
2023-05-21T03:15:56.602Z,13.90
2023-05-21T03:18:25.498Z,16.00
2023-05-21T03:20:54.147Z,15.10
2023-05-21T03:23:22.482Z,13.70
2023-05-21T03:25:51.421Z,14.00
2023-05-21T03:28:19.749Z,14.20
2023-05-21T03:30:50.117Z,13.60
2023-05-21T03:33:18.952Z,13.60
2023-05-21T03:35:47.281Z,12.10
2023-05-21T03:38:15.941Z,12.80
2023-05-21T03:40:44.419Z,12.20
2023-05-21T03:43:12.841Z,12.70
2023-05-21T03:45:55.030Z,11.10
2023-05-21T03:48:23.519Z,12.00
2023-05-21T03:50:52.161Z,11.60
2023-05-21T03:53:20.693Z,13.00
2023-05-21T03:55:55.619Z,11.10
2023-05-21T03:58:24.864Z,11.10
2023-05-21T04:00:53.287Z,11.20
2023-05-21T04:03:22.305Z,10.20
2023-05-21T04:05:51.264Z,10.60
2023-05-21T04:08:19.743Z,11.10
2023-05-21T04:10:48.388Z,10.30
2023-05-21T04:13:16.889Z,10.00
2023-05-21T04:15:47.066Z,9.00
2023-05-21T04:18:17.230Z,9.60
2023-05-21T04:20:45.657Z,9.60
2023-05-21T04:23:14.088Z,10.00
2023-05-21T04:25:42.729Z,10.00
2023-05-21T04:28:11.506Z,8.00
2023-05-21T04:30:39.797Z,8.70
2023-05-21T04:33:08.225Z,9.30
2023-05-21T04:35:36.908Z,8.80
2023-05-21T04:38:06.043Z,8.90
2023-05-21T04:40:36.970Z,9.30
2023-05-21T04:43:05.774Z,9.90
2023-05-21T04:45:56.524Z,9.10
2023-05-21T04:48:27.415Z,8.00
2023-05-21T04:50:58.123Z,8.50
2023-05-21T04:53:26.643Z,8.80
2023-05-21T04:55:56.414Z,10.00
2023-05-21T04:58:25.274Z,8.70
2023-05-21T05:00:54.146Z,8.40
2023-05-21T05:03:22.638Z,8.20
2023-05-21T05:05:51.970Z,9.00
2023-05-21T05:08:20.510Z,8.70
2023-05-21T05:10:48.994Z,9.10
2023-05-21T05:13:17.600Z,8.50
2023-05-21T05:15:48.704Z,7.90
2023-05-21T05:18:18.181Z,8.20
2023-05-21T05:20:48.105Z,10.70
2023-05-21T05:23:16.670Z,32.80
2023-05-21T05:25:45.100Z,9.90
2023-05-21T05:28:13.617Z,7.40
2023-05-21T05:30:42.043Z,8.30
2023-05-21T05:33:12.589Z,6.80
2023-05-21T05:35:41.060Z,7.00
2023-05-21T05:38:09.514Z,7.80
2023-05-21T05:40:38.624Z,9.20
2023-05-21T05:43:08.169Z,9.10
2023-05-21T05:45:39.438Z,7.80
2023-05-21T05:48:08.177Z,12.30
2023-05-21T05:50:37.216Z,11.60
2023-05-21T05:53:07.627Z,8.50
2023-05-21T05:55:36.850Z,6.70
2023-05-21T05:58:07.622Z,7.50
2023-05-21T06:00:36.044Z,9.70
2023-05-21T06:03:06.138Z,6.50
2023-05-21T06:05:34.892Z,8.00
2023-05-21T06:08:04.645Z,7.50
2023-05-21T06:10:37.048Z,6.90
2023-05-21T06:13:06.055Z,6.30
2023-05-21T06:15:34.720Z,5.80
2023-05-21T06:18:03.391Z,5.70
2023-05-21T06:20:32.282Z,5.60
2023-05-21T06:23:01.340Z,7.10
2023-05-21T06:25:30.018Z,7.20
2023-05-21T06:27:59.521Z,5.70
2023-05-21T06:30:27.873Z,5.40
2023-05-21T06:32:56.409Z,6.30
2023-05-21T06:35:25.179Z,5.00
2023-05-21T06:37:53.589Z,5.90
2023-05-21T06:40:22.408Z,5.60
2023-05-21T06:42:50.793Z,5.90
2023-05-21T06:45:19.165Z,5.30
2023-05-21T06:47:47.704Z,5.90
2023-05-21T06:50:16.916Z,6.30
2023-05-21T06:52:45.313Z,5.90
2023-05-21T06:55:14.392Z,4.80
2023-05-21T06:57:44.228Z,4.90
2023-05-21T07:00:13.104Z,4.30
2023-05-21T07:02:42.057Z,4.50
2023-05-21T07:05:10.755Z,5.10
2023-05-21T07:07:39.134Z,5.60
2023-05-21T07:10:09.896Z,4.70
2023-05-21T07:12:42.452Z,5.20
2023-05-21T07:15:12.595Z,4.30
2023-05-21T07:17:41.798Z,4.70
2023-05-21T07:21:04.846Z,5.40
2023-05-21T07:24:07.823Z,5.00
2023-05-21T07:27:25.220Z,5.80
2023-05-21T07:29:55.815Z,4.90
2023-05-21T07:36:08.982Z,4.00
2023-05-21T07:39:30.936Z,3.80
2023-05-21T07:42:01.723Z,4.00
2023-05-21T07:44:44.288Z,3.70
2023-05-21T07:47:19.385Z,3.70
2023-05-21T07:49:48.766Z,3.40
2023-05-21T07:52:17.646Z,3.50
2023-05-21T07:54:46.531Z,3.70
2023-05-21T07:57:15.360Z,3.60
2023-05-21T07:59:45.222Z,3.70
2023-05-21T08:02:14.158Z,3.40
2023-05-21T08:04:44.746Z,4.10
2023-05-21T08:07:17.229Z,3.90
2023-05-21T08:10:06.500Z,4.80
2023-05-21T08:12:35.242Z,4.10
2023-05-21T08:15:04.350Z,3.70
2023-05-21T08:17:33.092Z,3.40
2023-05-21T08:20:02.463Z,3.20
2023-05-21T08:22:31.310Z,3.60
2023-05-21T08:25:00.197Z,4.00
2023-05-21T08:27:28.972Z,11.60
2023-05-21T08:29:59.251Z,3.30
2023-05-21T08:32:28.571Z,3.20
2023-05-21T08:34:58.509Z,3.10
2023-05-21T08:37:27.589Z,3.00
2023-05-21T08:39:57.275Z,3.60
2023-05-21T08:42:39.946Z,3.20
2023-05-21T08:45:11.122Z,3.20
2023-05-21T08:47:48.787Z,3.50
2023-05-21T08:50:21.254Z,3.00
2023-05-21T08:52:53.998Z,3.10
2023-05-21T08:56:07.691Z,3.30
2023-05-21T08:58:37.572Z,3.50
2023-05-21T09:01:07.598Z,3.20
2023-05-21T09:06:59.892Z,3.30
2023-05-21T09:09:44.192Z,3.00
2023-05-21T09:12:13.277Z,3.80
2023-05-21T09:14:46.333Z,3.50
2023-05-21T09:17:15.933Z,3.30
2023-05-21T09:20:13.699Z,4.10
2023-05-21T09:22:43.499Z,3.20
2023-05-21T09:25:49.123Z,3.70
2023-05-21T09:28:48.820Z,3.30
2023-05-21T09:31:17.719Z,4.00
2023-05-21T09:34:46.548Z,3.20
2023-05-21T09:38:03.039Z,4.00
2023-05-21T09:41:13.980Z,3.80
2023-05-21T09:43:44.495Z,3.80
2023-05-21T09:46:56.157Z,3.40
2023-05-21T09:49:35.221Z,3.70
2023-05-21T09:52:47.562Z,3.10
2023-05-21T09:55:19.315Z,3.10
2023-05-21T09:58:10.953Z,3.20
2023-05-21T10:01:09.249Z,2.60
2023-05-21T10:07:13.486Z,3.00
2023-05-21T10:09:48.177Z,3.40
2023-05-21T10:12:27.934Z,3.00
2023-05-21T10:21:32.936Z,3.30
2023-05-21T10:30:04.118Z,3.60
2023-05-21T10:36:03.904Z,3.30
2023-05-21T10:38:36.934Z,3.10
2023-05-21T10:41:07.905Z,3.00
2023-05-21T10:43:59.695Z,3.00
2023-05-21T10:47:12.263Z,2.90
2023-05-21T10:50:04.449Z,2.90
2023-05-21T10:53:16.848Z,3.10
2023-05-21T10:55:55.600Z,3.20
2023-05-21T10:58:43.970Z,3.20
2023-05-21T11:01:15.751Z,3.50
2023-05-21T11:04:15.793Z,3.40
2023-05-21T11:06:49.731Z,3.90
2023-05-21T11:13:05.588Z,4.90
2023-05-21T11:16:07.946Z,3.30
2023-05-21T11:18:39.807Z,3.40
2023-05-21T11:21:13.274Z,3.30
2023-05-21T11:24:04.091Z,3.30
2023-05-21T11:27:28.146Z,3.60
2023-05-21T11:29:59.835Z,3.30
2023-05-21T11:32:30.115Z,3.70
2023-05-21T11:35:01.538Z,3.90
2023-05-21T11:37:32.450Z,3.50
2023-05-21T11:40:19.946Z,3.80
2023-05-21T11:42:53.016Z,4.20
2023-05-21T11:45:23.495Z,3.80
2023-05-21T11:47:53.868Z,19.20
2023-05-21T11:50:22.474Z,8.40
2023-05-21T11:52:52.370Z,10.20
2023-05-21T11:55:26.201Z,5.20
2023-05-21T11:57:55.735Z,3.90
2023-05-21T12:00:24.960Z,3.40
2023-05-21T12:02:54.570Z,3.50
2023-05-21T12:05:24.570Z,4.30
2023-05-21T12:07:56.089Z,4.90
2023-05-21T12:10:25.457Z,3.20
2023-05-21T12:12:56.989Z,3.90
2023-05-21T12:15:29.604Z,3.60
2023-05-21T12:17:58.850Z,4.60
2023-05-21T12:20:30.369Z,4.20
2023-05-21T12:22:59.614Z,3.60
2023-05-21T12:25:28.656Z,3.60
2023-05-21T12:27:58.903Z,2.90
2023-05-21T12:30:28.873Z,2.80
2023-05-21T12:32:58.602Z,2.80
2023-05-21T12:35:27.392Z,2.60
2023-05-21T12:37:56.992Z,2.90
2023-05-21T12:40:36.873Z,2.80
2023-05-21T12:43:05.722Z,3.10
2023-05-21T12:45:34.895Z,3.10
2023-05-21T12:48:04.863Z,2.90
2023-05-21T12:50:33.488Z,3.00
2023-05-21T12:53:02.919Z,2.80
2023-05-21T12:55:31.826Z,2.90
2023-05-21T12:58:02.271Z,2.90
2023-05-21T13:00:30.706Z,3.30
2023-05-21T13:03:01.276Z,3.20
2023-05-21T13:05:29.792Z,2.50
2023-05-21T13:07:58.959Z,3.10
2023-05-21T13:10:28.784Z,2.90
2023-05-21T13:12:57.350Z,3.10
2023-05-21T13:15:25.767Z,2.50
2023-05-21T13:17:56.968Z,2.80
2023-05-21T13:20:28.538Z,2.60
2023-05-21T13:22:56.973Z,3.10
2023-05-21T13:25:29.319Z,3.00
2023-05-21T13:27:58.439Z,3.30
2023-05-21T13:30:26.947Z,2.90
2023-05-21T13:32:55.864Z,2.90
2023-05-21T13:35:24.952Z,3.00
2023-05-21T13:37:53.384Z,2.80
2023-05-21T13:40:22.498Z,2.50
2023-05-21T13:42:51.023Z,3.70
2023-05-21T13:45:20.351Z,3.30
2023-05-21T13:48:01.386Z,2.70
2023-05-21T13:50:30.315Z,3.00
2023-05-21T13:52:59.054Z,3.00
2023-05-21T13:55:27.508Z,3.30
2023-05-21T13:57:55.973Z,2.90
2023-05-21T14:00:24.436Z,2.90
2023-05-21T14:02:53.144Z,2.80
2023-05-21T14:05:21.878Z,2.90
2023-05-21T14:07:51.696Z,2.50
2023-05-21T14:10:20.671Z,2.50
2023-05-21T14:12:49.111Z,2.30
2023-05-21T14:15:17.733Z,2.50
2023-05-21T14:17:46.522Z,2.60
2023-05-21T14:20:15.378Z,2.20
2023-05-21T14:22:43.920Z,2.50
2023-05-21T14:25:12.453Z,2.50
2023-05-21T14:27:40.956Z,2.40
2023-05-21T14:30:09.777Z,2.70
2023-05-21T14:32:38.258Z,2.90
2023-05-21T14:35:06.970Z,2.40
2023-05-21T14:37:35.518Z,2.10
2023-05-21T14:40:08.060Z,2.50
2023-05-21T14:42:37.812Z,2.30
2023-05-21T14:45:18.197Z,3.00
2023-05-21T14:48:12.873Z,2.20
2023-05-21T14:50:41.646Z,2.50
2023-05-21T14:53:11.019Z,2.40
2023-05-21T14:55:40.127Z,3.20
2023-05-21T14:58:09.068Z,2.80
2023-05-21T15:00:38.138Z,2.60
2023-05-21T15:03:07.450Z,3.30
2023-05-21T15:05:36.467Z,2.60
2023-05-21T15:08:06.378Z,2.20
2023-05-21T15:10:35.692Z,2.10
2023-05-21T15:13:06.132Z,2.60
2023-05-21T15:15:35.716Z,2.40
2023-05-21T15:18:04.544Z,2.50
2023-05-21T15:20:33.459Z,2.70
2023-05-21T15:25:33.373Z,2.70
2023-05-21T15:28:01.802Z,2.40
2023-05-21T15:30:30.323Z,2.50
2023-05-21T15:32:59.044Z,2.90
2023-05-21T15:35:27.827Z,3.50
2023-05-21T15:37:56.742Z,2.10
2023-05-21T15:40:26.905Z,2.30
2023-05-21T15:42:56.199Z,2.50
2023-05-21T15:45:24.928Z,2.70
2023-05-21T15:48:24.371Z,3.00
2023-05-21T15:50:53.684Z,3.10
2023-05-21T15:53:22.243Z,2.70
2023-05-21T15:55:50.819Z,3.30
2023-05-21T15:58:19.305Z,4.00
2023-05-21T16:00:47.911Z,3.90
2023-05-21T16:03:17.466Z,2.80
2023-05-21T16:05:46.479Z,2.90
2023-05-21T16:08:15.582Z,2.50
2023-05-21T16:10:46.380Z,2.60
2023-05-21T16:13:15.540Z,2.40
2023-05-21T16:15:44.082Z,2.30
2023-05-21T16:18:13.256Z,2.30
2023-05-21T16:20:41.895Z,2.50
2023-05-21T16:23:12.493Z,2.40
2023-05-21T16:25:41.411Z,3.00
2023-05-21T16:28:13.241Z,3.60
2023-05-21T16:30:43.300Z,3.00
2023-05-21T16:33:12.868Z,2.50
2023-05-21T16:35:41.461Z,3.60
2023-05-21T16:38:10.185Z,3.30
2023-05-21T16:40:40.677Z,2.50
2023-05-21T16:43:09.720Z,2.90
2023-05-21T16:45:54.610Z,2.90
2023-05-21T16:48:23.796Z,3.70
2023-05-21T16:50:52.664Z,2.70
2023-05-21T16:53:21.550Z,3.20
2023-05-21T16:55:51.046Z,2.60
2023-05-21T16:58:19.432Z,2.40
2023-05-21T17:00:48.429Z,2.50
2023-05-21T17:03:17.511Z,2.50
2023-05-21T17:05:47.249Z,2.30
2023-05-21T17:08:16.640Z,2.50
2023-05-21T17:10:45.647Z,2.40
2023-05-21T17:13:22.096Z,2.70
2023-05-21T17:15:51.893Z,2.60
2023-05-21T17:18:20.871Z,2.80
2023-05-21T17:20:49.547Z,2.60
2023-05-21T17:23:18.345Z,2.90
2023-05-21T17:25:48.052Z,2.40
2023-05-21T17:28:17.452Z,2.70
2023-05-21T17:30:48.028Z,2.40
2023-05-21T17:33:18.620Z,3.00
2023-05-21T17:35:47.204Z,2.40
2023-05-21T17:38:16.313Z,3.10
2023-05-21T17:40:45.324Z,3.00
2023-05-21T17:43:14.886Z,4.00
2023-05-21T17:45:43.438Z,3.30
2023-05-21T17:48:12.360Z,4.00
2023-05-21T17:50:40.895Z,2.70
2023-05-21T17:53:10.139Z,3.50
2023-05-21T17:55:38.962Z,3.00
2023-05-21T17:58:10.210Z,2.70
2023-05-21T18:00:38.884Z,3.00
2023-05-21T18:03:07.440Z,2.60
2023-05-21T18:05:37.054Z,2.70
2023-05-21T18:08:07.264Z,2.90
2023-05-21T18:10:36.095Z,8.40
2023-05-21T18:13:04.549Z,9.70
2023-05-21T18:15:33.944Z,10.20
2023-05-21T18:18:03.403Z,3.60
2023-05-21T18:20:33.045Z,3.50
2023-05-21T18:23:02.064Z,3.30
2023-05-21T18:25:30.720Z,3.20
2023-05-21T18:28:00.000Z,2.70
2023-05-21T18:30:29.547Z,2.50
2023-05-21T18:32:58.126Z,2.80
2023-05-21T18:35:27.672Z,28.90
2023-05-21T18:37:58.173Z,3.00
2023-05-21T18:40:33.500Z,2.50
2023-05-21T18:43:04.626Z,2.70
2023-05-21T18:45:33.495Z,2.30
2023-05-21T18:48:03.605Z,2.90
2023-05-21T18:50:32.944Z,3.50
2023-05-21T18:53:01.839Z,3.00
2023-05-21T18:55:30.982Z,3.20
2023-05-21T18:57:59.790Z,2.80
2023-05-21T19:00:28.772Z,3.00
2023-05-21T19:02:58.051Z,2.60
2023-05-21T19:05:26.569Z,2.60
2023-05-21T19:07:56.303Z,2.90
2023-05-21T19:10:27.203Z,2.90
2023-05-21T19:12:55.932Z,3.00
2023-05-21T19:15:24.967Z,2.90
2023-05-21T19:17:56.512Z,3.20
2023-05-21T19:20:27.104Z,2.90
2023-05-21T19:22:56.039Z,3.10
2023-05-21T19:25:24.811Z,3.00
2023-05-21T19:27:54.598Z,3.10
2023-05-21T19:30:24.129Z,2.80
2023-05-21T19:32:53.013Z,2.70
2023-05-21T19:35:23.214Z,2.80
2023-05-21T19:37:52.192Z,3.00
2023-05-21T19:40:23.864Z,2.90
2023-05-21T19:42:53.016Z,3.10
2023-05-21T19:45:22.469Z,2.60
2023-05-21T19:47:55.151Z,2.80
2023-05-21T19:50:29.118Z,3.10
2023-05-21T19:52:57.696Z,2.50
2023-05-21T19:55:27.550Z,3.30
2023-05-21T19:57:56.136Z,2.90
2023-05-21T20:00:27.861Z,3.10
2023-05-21T20:02:57.186Z,3.90
2023-05-21T20:05:26.049Z,2.80
2023-05-21T20:07:55.051Z,2.90
2023-05-21T20:10:24.179Z,2.70
2023-05-21T20:12:53.397Z,3.60
2023-05-21T20:15:22.005Z,2.90
2023-05-21T20:17:51.484Z,3.00
2023-05-21T20:20:23.293Z,3.10
2023-05-21T20:22:53.265Z,3.20
2023-05-21T20:25:23.894Z,3.20
2023-05-21T20:27:54.674Z,3.20
2023-05-21T20:30:24.628Z,2.80
2023-05-21T20:32:53.615Z,3.10
2023-05-21T20:35:22.496Z,3.00
2023-05-21T20:37:53.064Z,3.70
2023-05-21T20:40:25.472Z,2.90
2023-05-21T20:42:54.590Z,2.90
2023-05-21T20:45:24.124Z,3.50
2023-05-21T20:48:21.441Z,3.60
2023-05-21T20:50:52.949Z,3.20
2023-05-21T20:53:22.178Z,3.30
2023-05-21T20:55:52.923Z,3.20
2023-05-21T20:58:22.594Z,3.20
2023-05-21T21:00:51.590Z,3.30
2023-05-21T21:03:21.929Z,3.40
2023-05-21T21:05:53.124Z,3.50
2023-05-21T21:08:21.560Z,3.10
2023-05-21T21:10:51.320Z,3.30
2023-05-21T21:13:21.208Z,3.40
2023-05-21T21:15:50.620Z,3.30
2023-05-21T21:18:19.479Z,4.20
2023-05-21T21:20:50.480Z,3.40
2023-05-21T21:23:19.029Z,3.60
2023-05-21T21:25:47.550Z,3.40
2023-05-21T21:28:16.183Z,3.80
2023-05-21T21:30:45.424Z,3.70
2023-05-21T21:33:16.743Z,3.60
2023-05-21T21:35:46.855Z,3.60
2023-05-21T21:38:16.460Z,3.30
2023-05-21T21:40:44.894Z,3.40
2023-05-21T21:43:13.418Z,3.60
2023-05-21T21:45:42.786Z,3.50
2023-05-21T21:48:11.925Z,3.60
2023-05-21T21:50:41.601Z,3.70
2023-05-21T21:53:10.408Z,3.80
2023-05-21T21:55:39.377Z,3.60
2023-05-21T21:58:07.879Z,3.40
2023-05-21T22:00:37.435Z,3.20
2023-05-21T22:03:07.002Z,3.60
2023-05-21T22:05:36.102Z,3.80
2023-05-21T22:08:04.735Z,3.60
2023-05-21T22:10:38.313Z,3.60
2023-05-21T22:13:07.325Z,3.60
2023-05-21T22:15:36.031Z,3.80
2023-05-21T22:18:04.907Z,3.80
2023-05-21T22:20:34.126Z,4.00
2023-05-21T22:23:02.563Z,3.80
2023-05-21T22:25:31.216Z,3.60
2023-05-21T22:27:59.683Z,3.40
2023-05-21T22:30:28.234Z,3.80
2023-05-21T22:33:00.256Z,4.30
2023-05-21T22:35:29.312Z,4.00
2023-05-21T22:37:59.152Z,3.50
2023-05-21T22:40:28.005Z,3.60
2023-05-21T22:42:57.074Z,4.00
2023-05-21T22:45:26.883Z,3.20
2023-05-21T22:48:22.274Z,3.60
2023-05-21T22:50:53.712Z,3.80
2023-05-21T22:53:23.851Z,4.00
2023-05-21T22:55:52.941Z,3.80
2023-05-21T22:58:22.298Z,3.70
2023-05-21T23:00:51.555Z,3.60
2023-05-21T23:03:20.724Z,4.00
2023-05-21T23:05:49.737Z,4.40
2023-05-21T23:08:18.303Z,3.90
2023-05-21T23:10:46.944Z,4.30
2023-05-21T23:13:16.646Z,4.20
2023-05-21T23:15:46.059Z,4.30
2023-05-21T23:18:15.291Z,3.70
2023-05-21T23:20:44.155Z,4.10
2023-05-21T23:23:12.957Z,4.00
2023-05-21T23:25:41.431Z,4.10
2023-05-21T23:28:09.944Z,4.00
2023-05-21T23:30:39.115Z,4.60
2023-05-21T23:33:07.920Z,4.00
2023-05-21T23:35:36.618Z,4.00
2023-05-21T23:38:06.091Z,4.20
2023-05-21T23:40:35.427Z,4.50
2023-05-21T23:43:04.871Z,3.90
2023-05-21T23:45:34.331Z,4.60
2023-05-21T23:48:03.196Z,4.40
2023-05-21T23:50:33.171Z,4.50
2023-05-21T23:53:02.240Z,4.70
2023-05-21T23:55:31.896Z,3.90
2023-05-21T23:58:02.189Z,4.50
